Time;durP1;ratioP1;P1;durP2;ratioP2;P2;SDS_P1;SDS_P2;PMS_P1;PMS_P2;Temp;Humidity;BMP_temperature;BMP_pressure;BME280_temperature;BME280_humidity;BME280_pressure;Samples;Min_cycle;Max_cycle;Signal;HPM_P1;HPM_P2
2023/08/08 00:01:29;;;;;;;5.82;1.80;;;18.30;97.60;;;;;;4068830;29;20142;-54
2023/08/08 00:03:32;;;;;;;6.22;1.73;;;18.30;97.50;;;;;;4068715;29;20097;-54
2023/08/08 00:05:35;;;;;;;3.85;1.45;;;18.30;97.50;;;;;;4068991;29;20058;-54
2023/08/08 00:07:38;;;;;;;8.65;1.83;;;18.30;97.40;;;;;;4069065;29;20477;-55
2023/08/08 00:09:40;;;;;;;5.95;2.05;;;18.30;97.50;;;;;;4068414;29;20040;-54
2023/08/08 00:11:42;;;;;;;4.15;1.65;;;18.30;97.40;;;;;;4068604;29;20059;-55
2023/08/08 00:13:46;;;;;;;3.93;1.67;;;18.30;97.60;;;;;;4068699;29;20049;-54
2023/08/08 00:15:48;;;;;;;5.80;1.70;;;18.20;98.00;;;;;;4068878;29;20522;-55
2023/08/08 00:17:50;;;;;;;5.28;1.73;;;18.20;98.10;;;;;;4068565;29;20430;-54
2023/08/08 00:19:54;;;;;;;4.90;1.67;;;18.20;98.00;;;;;;4068212;29;20317;-55
2023/08/08 00:21:56;;;;;;;6.05;1.95;;;18.10;98.10;;;;;;4068832;29;20131;-52
2023/08/08 00:24:01;;;;;;;5.07;2.00;;;18.10;98.00;;;;;;4068869;29;20056;-52
2023/08/08 00:26:03;;;;;;;6.43;2.28;;;18.10;98.60;;;;;;4068564;29;20391;-55
2023/08/08 00:28:05;;;;;;;6.45;2.40;;;18.00;98.30;;;;;;4068528;29;20070;-55
2023/08/08 00:30:08;;;;;;;3.38;1.52;;;18.00;98.40;;;;;;4066631;29;20100;-55
2023/08/08 00:32:11;;;;;;;4.72;2.20;;;18.00;98.40;;;;;;4068157;29;20111;-54
2023/08/08 00:34:13;;;;;;;3.75;1.70;;;17.90;98.40;;;;;;4068595;29;20482;-54
2023/08/08 00:36:16;;;;;;;7.03;2.10;;;17.90;98.30;;;;;;4068345;29;20122;-54
2023/08/08 00:38:18;;;;;;;4.10;1.73;;;17.90;98.30;;;;;;4068586;29;20056;-55
2023/08/08 00:40:20;;;;;;;5.25;1.88;;;17.90;98.30;;;;;;4067852;29;20055;-56
2023/08/08 00:42:23;;;;;;;7.45;2.30;;;17.80;98.80;;;;;;4068597;29;20052;-52
2023/08/08 00:44:25;;;;;;;6.25;1.75;;;17.90;98.80;;;;;;4068630;29;20052;-54
2023/08/08 00:46:27;;;;;;;6.25;1.83;;;17.80;98.90;;;;;;4068247;29;20120;-55
2023/08/08 00:48:30;;;;;;;2.50;1.30;;;17.80;98.80;;;;;;4068480;29;20063;-53
2023/08/08 00:50:32;;;;;;;5.82;2.17;;;17.80;98.90;;;;;;4067542;29;20052;-54
2023/08/08 00:52:37;;;;;;;6.20;1.63;;;17.70;98.90;;;;;;4066960;29;20123;-53
2023/08/08 00:54:40;;;;;;;4.13;1.92;;;17.70;99.10;;;;;;4068329;29;20414;-52
2023/08/08 00:56:42;;;;;;;8.07;2.00;;;17.70;99.20;;;;;;4068195;29;20099;-53
2023/08/08 00:58:50;;;;;;;5.15;1.83;;;17.70;99.40;;;;;;4067599;29;20044;-51
2023/08/08 01:00:54;;;;;;;3.50;1.95;;;17.60;99.00;;;;;;4067491;29;20451;-52
2023/08/08 01:02:57;;;;;;;7.80;2.22;;;17.60;99.10;;;;;;4067769;29;20052;-52
2023/08/08 01:04:59;;;;;;;6.00;1.98;;;17.60;99.30;;;;;;4068028;29;20577;-52
2023/08/08 01:07:08;;;;;;;7.80;1.80;;;17.60;99.40;;;;;;4068157;29;20048;-52
2023/08/08 01:09:19;;;;;;;4.80;1.70;;;17.60;99.30;;;;;;4068329;29;20051;-53
2023/08/08 01:11:22;;;;;;;5.57;1.92;;;17.60;99.50;;;;;;4067177;29;20470;-53
2023/08/08 01:13:27;;;;;;;2.92;1.38;;;17.60;99.60;;;;;;4068238;29;20052;-52
2023/08/08 01:15:35;;;;;;;6.22;2.10;;;17.50;99.70;;;;;;4067733;29;20048;-53
2023/08/08 01:17:38;;;;;;;8.27;2.05;;;17.50;99.80;;;;;;4068077;29;20048;-53
2023/08/08 01:19:41;;;;;;;4.95;2.00;;;17.50;99.90;;;;;;4067828;29;20059;-53
2023/08/08 01:21:45;;;;;;;9.25;2.22;;;17.50;99.80;;;;;;4067472;29;20413;-52
2023/08/08 01:23:53;;;;;;;4.13;1.38;;;17.50;99.90;;;;;;4066713;29;20058;-53
2023/08/08 01:25:58;;;;;;;3.28;1.55;;;17.40;99.90;;;;;;4067880;29;20052;-53
2023/08/08 01:28:00;;;;;;;;;;;17.50;99.90;;;;;;4068534;29;20076;-53
2023/08/08 01:30:03;;;;;;;6.35;2.25;;;17.50;99.90;;;;;;4065816;29;19923;-53
2023/08/08 01:32:08;;;;;;;6.25;2.10;;;17.40;99.90;;;;;;4067951;29;20139;-52
2023/08/08 01:34:10;;;;;;;5.55;1.70;;;17.50;99.90;;;;;;4067870;29;20055;-53
2023/08/08 01:36:19;;;;;;;3.80;1.65;;;17.50;99.90;;;;;;4067843;29;20075;-56
2023/08/08 01:38:28;;;;;;;10.57;2.33;;;17.60;99.90;;;;;;4067910;29;20048;-54
2023/08/08 01:40:32;;;;;;;3.78;1.67;;;17.60;99.90;;;;;;4067247;29;20439;-53
2023/08/08 01:42:36;;;;;;;5.43;1.95;;;17.60;99.90;;;;;;4067744;29;20044;-53
2023/08/08 01:44:40;;;;;;;4.15;1.60;;;17.60;99.90;;;;;;4067648;29;20175;-52
2023/08/08 01:46:42;;;;;;;6.35;1.90;;;17.60;99.90;;;;;;4067680;29;20052;-52
2023/08/08 01:48:46;;;;;;;8.25;2.13;;;17.60;99.90;;;;;;4068003;29;20048;-51
2023/08/08 01:50:48;;;;;;;4.88;1.75;;;17.70;99.80;;;;;;4067073;29;20127;-54
2023/08/08 01:52:50;;;;;;;6.60;2.13;;;17.70;99.80;;;;;;4068000;29;20431;-53
2023/08/08 01:54:52;;;;;;;3.97;1.42;;;17.70;99.60;;;;;;4067832;29;20517;-53
2023/08/08 01:56:54;;;;;;;9.50;2.35;;;17.80;99.80;;;;;;4066583;29;20048;-54
2023/08/08 01:58:57;;;;;;;4.47;2.03;;;17.80;99.70;;;;;;4067680;29;20044;-54
2023/08/08 02:00:59;;;;;;;6.55;1.83;;;17.80;99.80;;;;;;4067072;29;20052;-53
2023/08/08 02:03:02;;;;;;;4.78;1.80;;;17.80;99.80;;;;;;4067627;29;20052;-53
2023/08/08 02:05:05;;;;;;;5.50;2.03;;;17.70;99.50;;;;;;4067614;29;20055;-56
2023/08/08 02:07:08;;;;;;;7.03;1.67;;;17.80;99.50;;;;;;4067546;29;20048;-55
2023/08/08 02:09:10;;;;;;;5.25;1.60;;;17.70;99.70;;;;;;4067709;29;20052;-55
2023/08/08 02:11:12;;;;;;;5.43;1.58;;;17.80;99.60;;;;;;4069376;29;20457;-56
2023/08/08 02:13:14;;;;;;;3.92;1.77;;;17.80;99.70;;;;;;4070673;29;20048;-53
2023/08/08 02:15:18;;;;;;;3.58;1.45;;;17.80;99.80;;;;;;4069982;29;20117;-52
2023/08/08 02:17:21;;;;;;;3.40;1.38;;;17.80;99.70;;;;;;4070705;29;20048;-53
2023/08/08 02:19:23;;;;;;;5.07;1.60;;;17.70;99.90;;;;;;4070571;29;20131;-52
2023/08/08 02:21:25;;;;;;;4.43;1.63;;;17.70;99.90;;;;;;4070132;29;20087;-52
2023/08/08 02:23:27;;;;;;;5.72;1.50;;;17.70;99.90;;;;;;4070432;29;20086;-54
2023/08/08 02:25:30;;;;;;;5.75;1.52;;;17.70;99.80;;;;;;4070671;29;20459;-53
2023/08/08 02:27:32;;;;;;;5.90;1.80;;;17.70;99.80;;;;;;4070385;29;20421;-52
2023/08/08 02:29:34;;;;;;;6.30;1.83;;;17.70;99.90;;;;;;4070263;29;20072;-52
2023/08/08 02:31:38;;;;;;;5.00;1.90;;;17.70;99.90;;;;;;4069728;29;20525;-50
2023/08/08 02:33:40;;;;;;;6.45;2.00;;;17.60;99.90;;;;;;4070300;29;20131;-54
2023/08/08 02:35:42;;;;;;;7.65;1.85;;;17.60;99.90;;;;;;4070173;29;20438;-53
2023/08/08 02:37:44;;;;;;;4.93;1.80;;;17.50;99.90;;;;;;4070527;29;20044;-53
2023/08/08 02:39:46;;;;;;;5.78;1.90;;;17.40;99.90;;;;;;4070207;29;20174;-54
2023/08/08 02:41:48;;;;;;;6.72;1.80;;;17.40;99.90;;;;;;4068170;29;20048;-53
2023/08/08 02:43:50;;;;;;;4.65;2.08;;;17.40;99.90;;;;;;4069762;29;20127;-52
2023/08/08 02:45:52;;;;;;;3.55;1.58;;;17.40;99.90;;;;;;4070215;29;20058;-52
2023/08/08 02:47:56;;;;;;;9.57;1.92;;;17.40;99.90;;;;;;4070132;29;20550;-53
2023/08/08 02:49:58;;;;;;;7.72;2.20;;;17.40;99.90;;;;;;4069738;29;20048;-52
2023/08/08 02:52:00;;;;;;;5.18;2.00;;;17.40;99.90;;;;;;4069456;29;20067;-50
2023/08/08 02:54:03;;;;;;;7.95;2.03;;;17.30;99.90;;;;;;4069895;29;20517;-51
2023/08/08 02:56:05;;;;;;;9.27;2.90;;;17.30;99.90;;;;;;4070034;29;20417;-53
2023/08/08 02:58:07;;;;;;;9.30;2.63;;;17.40;99.90;;;;;;4069541;29;20056;-53
2023/08/08 03:00:11;;;;;;;9.18;2.50;;;17.40;99.90;;;;;;4069307;29;20135;-52
2023/08/08 03:02:13;;;;;;;9.63;2.67;;;17.40;99.90;;;;;;4069872;29;20402;-52
2023/08/08 03:04:16;;;;;;;9.88;2.50;;;17.40;99.90;;;;;;4069576;29;20052;-52
2023/08/08 03:06:18;;;;;;;8.18;2.53;;;17.30;99.90;;;;;;4070146;29;20048;-52
2023/08/08 03:08:21;;;;;;;6.70;2.08;;;17.30;99.90;;;;;;4069812;29;20080;-52
2023/08/08 03:10:23;;;;;;;7.20;2.00;;;17.30;99.90;;;;;;4069271;29;20546;-52
2023/08/08 03:12:25;;;;;;;7.00;1.80;;;17.30;99.90;;;;;;4069697;29;20399;-53
2023/08/08 03:14:27;;;;;;;6.68;2.05;;;17.30;99.90;;;;;;4069602;29;20088;-53
2023/08/08 03:16:29;;;;;;;6.78;2.03;;;17.30;99.90;;;;;;4070152;29;20170;-52
2023/08/08 03:18:31;;;;;;;4.88;1.85;;;17.30;99.90;;;;;;4070014;29;20059;-52
2023/08/08 03:20:35;;;;;;;7.20;2.47;;;17.30;99.90;;;;;;4069187;29;20127;-53
2023/08/08 03:22:37;;;;;;;6.25;2.10;;;17.30;99.90;;;;;;4068779;29;20048;-52
2023/08/08 03:24:39;;;;;;;5.25;1.88;;;17.20;99.90;;;;;;4069495;29;20119;-52
2023/08/08 03:26:41;;;;;;;9.75;2.10;;;17.30;99.90;;;;;;4069579;29;20052;-52
2023/08/08 03:28:43;;;;;;;5.10;2.22;;;17.20;99.90;;;;;;4069527;29;20044;-51
2023/08/08 03:30:45;;;;;;;10.38;2.20;;;17.30;99.90;;;;;;4068852;29;20486;-51
2023/08/08 03:32:48;;;;;;;6.30;2.00;;;17.20;99.90;;;;;;4069352;29;20040;-51
2023/08/08 03:34:50;;;;;;;5.68;2.08;;;17.20;99.90;;;;;;4069312;29;20056;-52
2023/08/08 03:36:53;;;;;;;6.75;1.83;;;17.20;99.90;;;;;;4069290;29;20071;-52
2023/08/08 03:38:55;;;;;;;6.35;1.95;;;17.20;99.90;;;;;;4069303;29;20059;-52
2023/08/08 03:40:57;;;;;;;4.85;1.80;;;17.20;99.90;;;;;;4068436;29;20132;-51
2023/08/08 03:42:59;;;;;;;7.28;1.70;;;17.20;99.90;;;;;;4069084;29;20450;-52
2023/08/08 03:45:01;;;;;;;9.45;2.08;;;17.20;99.90;;;;;;4069341;29;20156;-51
2023/08/08 03:47:04;;;;;;;5.53;1.48;;;17.20;99.90;;;;;;4069037;29;20079;-51
2023/08/08 03:49:19;;;;;;;6.47;1.80;;;17.20;99.90;;;;;;4069346;29;20183;-51
2023/08/08 03:51:22;;;;;;;7.43;1.98;;;17.10;99.90;;;;;;4068414;29;20048;-51
2023/08/08 03:53:25;;;;;;;4.80;2.03;;;17.10;99.90;;;;;;4069344;29;20079;-50
2023/08/08 03:55:27;;;;;;;7.03;1.95;;;17.10;99.90;;;;;;4068652;29;20127;-52
2023/08/08 03:57:29;;;;;;;5.53;2.10;;;17.20;99.90;;;;;;4069177;29;20048;-54
2023/08/08 03:59:31;;;;;;;4.07;1.67;;;17.20;99.90;;;;;;4068911;29;20075;-52
2023/08/08 04:01:33;;;;;;;8.38;2.10;;;17.10;99.90;;;;;;4068264;29;20055;-53
2023/08/08 04:03:37;;;;;;;6.00;2.20;;;17.10;99.90;;;;;;4069126;29;20052;-52
2023/08/08 04:05:39;;;;;;;4.70;1.85;;;17.00;99.90;;;;;;4069443;29;20422;-51
2023/08/08 04:07:41;;;;;;;6.00;2.13;;;17.00;99.90;;;;;;4068700;29;20056;-51
2023/08/08 04:09:44;;;;;;;7.28;1.80;;;17.00;99.90;;;;;;4068426;29;20107;-52
2023/08/08 04:11:46;;;;;;;4.40;1.70;;;17.00;99.90;;;;;;4068267;29;20071;-52
2023/08/08 04:13:48;;;;;;;6.80;2.03;;;17.00;99.90;;;;;;4068901;29;20048;-51
2023/08/08 04:15:51;;;;;;;6.88;1.88;;;17.00;99.90;;;;;;4068568;29;20048;-52
2023/08/08 04:17:54;;;;;;;5.13;1.92;;;17.00;99.90;;;;;;4068920;29;20483;-51
2023/08/08 04:19:56;;;;;;;6.80;1.90;;;17.00;99.90;;;;;;4068961;29;20052;-51
2023/08/08 04:21:59;;;;;;;6.75;1.83;;;17.00;99.90;;;;;;4067860;29;20052;-55
2023/08/08 04:24:02;;;;;;;7.50;2.45;;;17.00;99.90;;;;;;4067247;29;20304;-52
2023/08/08 04:26:05;;;;;;;7.43;2.03;;;16.90;99.90;;;;;;4068697;29;20044;-53
2023/08/08 04:28:07;;;;;;;4.63;1.90;;;16.90;99.90;;;;;;4068631;29;20051;-57
2023/08/08 04:30:10;;;;;;;7.05;2.22;;;16.90;99.90;;;;;;4068673;29;20164;-56
2023/08/08 04:32:12;;;;;;;8.48;2.08;;;17.00;99.90;;;;;;4067865;29;20044;-56
2023/08/08 04:34:14;;;;;;;8.93;2.40;;;17.00;99.90;;;;;;4068412;29;20052;-55
2023/08/08 04:36:16;;;;;;;5.93;2.20;;;16.90;99.90;;;;;;4068416;29;20103;-54
2023/08/08 04:38:18;;;;;;;9.02;2.30;;;16.90;99.90;;;;;;4068676;29;20415;-52
2023/08/08 04:40:20;;;;;;;7.55;2.35;;;17.00;99.90;;;;;;4068166;29;20044;-53
2023/08/08 04:42:24;;;;;;;6.38;2.15;;;16.90;99.90;;;;;;4067946;29;20470;-53
2023/08/08 04:44:26;;;;;;;6.25;2.28;;;16.90;99.90;;;;;;4068459;29;20052;-52
2023/08/08 04:46:28;;;;;;;11.07;2.60;;;17.00;99.90;;;;;;4067175;29;20048;-52
2023/08/08 04:48:30;;;;;;;6.13;2.25;;;17.00;99.90;;;;;;4068237;29;20095;-51
2023/08/08 04:50:32;;;;;;;5.28;2.13;;;17.00;99.90;;;;;;4067672;29;20082;-52
2023/08/08 04:52:34;;;;;;;9.10;2.10;;;17.00;99.90;;;;;;4068016;29;20048;-52
2023/08/08 04:54:36;;;;;;;7.03;2.22;;;17.00;99.90;;;;;;4067919;29;20048;-52
2023/08/08 04:56:38;;;;;;;8.02;2.40;;;17.10;99.90;;;;;;4068181;29;20132;-51
2023/08/08 04:58:42;;;;;;;5.95;1.90;;;17.10;99.90;;;;;;4068323;29;20052;-55
2023/08/08 05:00:44;;;;;;;8.98;2.60;;;17.10;99.90;;;;;;4067768;29;20132;-55
2023/08/08 05:02:46;;;;;;;10.15;2.72;;;17.20;99.90;;;;;;4067899;29;20066;-55
2023/08/08 05:04:49;;;;;;;8.02;2.15;;;17.20;99.90;;;;;;4068013;29;20059;-54
2023/08/08 05:06:51;;;;;;;7.68;2.28;;;17.20;99.90;;;;;;4068139;29;20048;-54
2023/08/08 05:08:54;;;;;;;8.95;2.85;;;17.20;99.90;;;;;;4067777;29;20052;-54
2023/08/08 05:10:56;;;;;;;6.85;2.40;;;17.30;99.90;;;;;;4067296;29;20056;-54
2023/08/08 05:12:58;;;;;;;8.95;2.75;;;17.30;99.90;;;;;;4066746;29;20100;-52
2023/08/08 05:15:02;;;;;;;8.30;3.13;;;17.40;99.90;;;;;;4067905;29;20484;-52
2023/08/08 05:17:05;;;;;;;12.73;3.50;;;17.40;99.90;;;;;;4067983;29;20451;-53
2023/08/08 05:19:07;;;;;;;11.13;3.20;;;17.40;99.90;;;;;;4067995;29;20047;-52
2023/08/08 05:21:09;;;;;;;4.85;2.10;;;17.50;99.90;;;;;;4067272;29;20083;-52
2023/08/08 05:23:11;;;;;;;8.60;2.30;;;17.50;99.90;;;;;;4067886;29;20059;-54
2023/08/08 05:25:13;;;;;;;7.30;2.15;;;17.40;99.90;;;;;;4068025;29;20052;-52
2023/08/08 05:27:15;;;;;;;7.47;2.83;;;17.50;99.90;;;;;;4068207;29;20055;-54
2023/08/08 05:29:18;;;;;;;8.05;2.42;;;17.50;99.90;;;;;;4068154;29;20044;-52
2023/08/08 05:31:21;;;;;;;9.02;2.70;;;17.50;99.90;;;;;;4067353;29;20139;-54
2023/08/08 05:33:23;;;;;;;7.65;2.45;;;17.50;99.90;;;;;;4068063;29;20135;-55
2023/08/08 05:35:25;;;;;;;9.73;2.40;;;17.50;99.90;;;;;;4067838;29;20059;-54
2023/08/08 05:37:27;;;;;;;5.75;1.88;;;17.50;99.90;;;;;;4066269;29;20059;-55
2023/08/08 05:39:30;;;;;;;10.23;2.42;;;17.60;99.90;;;;;;4067804;29;20048;-54
2023/08/08 05:41:32;;;;;;;8.10;2.17;;;17.60;99.90;;;;;;4067321;29;20511;-55
2023/08/08 05:43:35;;;;;;;8.45;2.00;;;17.60;99.90;;;;;;4067771;29;20494;-54
2023/08/08 05:45:37;;;;;;;7.30;2.25;;;17.70;99.90;;;;;;4069581;29;20048;-54
2023/08/08 05:47:41;;;;;;;9.13;1.75;;;17.70;99.90;;;;;;4071292;29;20075;-53
2023/08/08 05:49:43;;;;;;;7.38;2.28;;;17.70;99.90;;;;;;4070927;29;20052;-54
2023/08/08 05:51:45;;;;;;;10.43;2.63;;;17.90;99.90;;;;;;4069830;29;20048;-54
2023/08/08 05:53:47;;;;;;;6.85;2.10;;;17.90;99.90;;;;;;4070935;29;20119;-54
2023/08/08 05:55:49;;;;;;;8.95;1.90;;;18.00;99.90;;;;;;4070723;29;20518;-55
2023/08/08 05:57:51;;;;;;;6.93;2.35;;;18.00;99.90;;;;;;4071012;29;20142;-55
2023/08/08 05:59:53;;;;;;;8.27;2.25;;;18.00;99.90;;;;;;4070807;29;20075;-54
2023/08/08 06:01:55;;;;;;;12.20;2.65;;;18.10;99.90;;;;;;4070257;29;20107;-54
2023/08/08 06:03:59;;;;;;;6.63;1.75;;;18.20;99.90;;;;;;4070881;29;20048;-54
2023/08/08 06:06:01;;;;;;;7.50;2.13;;;18.20;99.90;;;;;;4070492;29;20052;-54
2023/08/08 06:08:07;;;;;;;15.80;2.25;;;18.30;99.90;;;;;;4070882;29;20048;-54
2023/08/08 06:10:10;;;;;;;12.07;2.30;;;18.30;99.90;;;;;;4070737;29;20178;-55
2023/08/08 06:12:12;;;;;;;13.40;3.00;;;18.30;99.90;;;;;;4070087;29;20048;-54
2023/08/08 06:14:14;;;;;;;6.07;2.20;;;18.40;99.90;;;;;;4070638;29;20048;-54
2023/08/08 06:16:16;;;;;;;5.47;2.10;;;18.40;99.90;;;;;;4070532;29;20056;-55
2023/08/08 06:18:18;;;;;;;7.20;1.90;;;18.50;99.90;;;;;;4070682;29;20059;-55
2023/08/08 06:20:22;;;;;;;6.57;1.60;;;18.50;99.90;;;;;;4070286;29;20450;-54
2023/08/08 06:22:24;;;;;;;4.97;1.90;;;18.50;99.90;;;;;;4069882;29;20052;-52
2023/08/08 06:24:26;;;;;;;8.05;1.88;;;18.50;99.90;;;;;;4070824;29;20048;-51
2023/08/08 06:26:28;;;;;;;12.70;2.03;;;18.50;99.90;;;;;;4070471;29;20107;-53
2023/08/08 06:28:30;;;;;;;6.57;1.88;;;18.60;99.90;;;;;;4070515;29;20151;-54
2023/08/08 06:30:33;;;;;;;6.68;1.77;;;18.60;99.90;;;;;;4070633;29;20055;-53
2023/08/08 06:32:35;;;;;;;6.47;1.95;;;18.50;99.90;;;;;;4069821;29;20055;-52
2023/08/08 06:34:37;;;;;;;8.43;2.67;;;18.50;99.90;;;;;;4069976;29;20050;-53
2023/08/08 06:36:40;;;;;;;7.35;2.00;;;18.60;99.90;;;;;;4070481;29;20052;-55
2023/08/08 06:38:42;;;;;;;9.95;2.45;;;18.60;99.90;;;;;;4070212;29;20048;-55
2023/08/08 06:40:44;;;;;;;5.25;1.80;;;18.60;99.90;;;;;;4070235;29;20138;-54
2023/08/08 06:42:46;;;;;;;5.45;1.73;;;18.60;99.80;;;;;;4069602;29;20048;-52
2023/08/08 06:44:48;;;;;;;6.28;2.17;;;18.50;99.80;;;;;;4070044;29;20059;-52
2023/08/08 06:46:50;;;;;;;11.45;2.13;;;18.50;99.70;;;;;;4070180;29;20527;-55
2023/08/08 06:48:56;;;;;;;10.70;2.20;;;18.50;99.90;;;;;;4070188;29;20525;-55
2023/08/08 06:50:59;;;;;;;7.35;1.55;;;18.50;99.90;;;;;;4069220;29;20071;-54
2023/08/08 06:53:03;;;;;;;7.68;1.75;;;18.60;99.90;;;;;;4069819;29;20119;-55
2023/08/08 06:55:06;;;;;;;5.47;1.70;;;18.60;99.30;;;;;;4070027;29;20086;-54
2023/08/08 06:57:08;;;;;;;6.88;1.63;;;18.50;99.10;;;;;;4068978;29;20056;-53
2023/08/08 06:59:10;;;;;;;6.18;1.67;;;18.60;99.10;;;;;;4070138;29;20064;-55
2023/08/08 07:01:13;;;;;;;6.88;2.10;;;18.60;98.80;;;;;;4069418;29;20082;-55
2023/08/08 07:03:15;;;;;;;7.75;2.20;;;18.60;98.90;;;;;;4069611;29;20055;-55
2023/08/08 07:05:18;;;;;;;10.98;2.20;;;18.70;99.20;;;;;;4069587;29;20408;-55
2023/08/08 07:07:20;;;;;;;6.82;1.90;;;18.80;98.90;;;;;;4070017;29;20513;-52
2023/08/08 07:09:24;;;;;;;9.57;2.25;;;18.80;98.70;;;;;;4069818;29;20056;-52
2023/08/08 07:11:27;;;;;;;6.72;1.52;;;18.90;98.40;;;;;;4068953;29;20052;-52
2023/08/08 07:13:29;;;;;;;9.00;1.80;;;18.90;98.40;;;;;;4069702;29;20080;-55
2023/08/08 07:15:31;;;;;;;6.70;1.55;;;19.00;97.60;;;;;;4069684;29;20554;-55
2023/08/08 07:17:33;;;;;;;8.00;1.80;;;19.00;97.30;;;;;;4069703;29;20419;-55
2023/08/08 07:19:36;;;;;;;4.80;1.63;;;19.00;97.70;;;;;;4068114;29;20048;-54
2023/08/08 07:21:38;;;;;;;5.18;1.77;;;19.00;98.00;;;;;;4068826;29;20092;-53
2023/08/08 07:23:40;;;;;;;5.50;1.90;;;19.00;98.00;;;;;;4069460;29;20127;-51
2023/08/08 07:25:45;;;;;;;7.47;2.03;;;19.00;98.00;;;;;;4069735;29;20088;-51
2023/08/08 07:27:47;;;;;;;8.10;1.65;;;19.00;97.30;;;;;;4069714;29;20052;-54
2023/08/08 07:29:49;;;;;;;4.70;1.38;;;19.10;97.20;;;;;;4069583;29;20048;-52
2023/08/08 07:31:53;;;;;;;6.25;1.80;;;19.20;97.30;;;;;;4068820;29;20130;-53
2023/08/08 07:33:55;;;;;;;7.32;1.85;;;19.20;96.80;;;;;;4069098;29;20048;-55
2023/08/08 07:35:57;;;;;;;5.93;1.70;;;19.30;97.00;;;;;;4069394;29;20059;-54
2023/08/08 07:37:59;;;;;;;7.43;1.52;;;19.30;97.10;;;;;;4069360;29;20087;-52
2023/08/08 07:40:01;;;;;;;7.13;1.83;;;19.20;96.50;;;;;;4069373;29;20526;-54
2023/08/08 07:42:05;;;;;;;5.72;2.13;;;19.30;96.30;;;;;;4068454;29;20048;-53
2023/08/08 07:44:07;;;;;;;5.80;1.50;;;19.40;96.50;;;;;;4069116;29;20048;-52
2023/08/08 07:46:10;;;;;;;6.65;1.85;;;19.40;96.40;;;;;;4069252;29;20115;-52
2023/08/08 07:48:12;;;;;;;10.98;1.80;;;19.50;96.40;;;;;;4068970;29;20537;-51
2023/08/08 07:50:14;;;;;;;6.68;1.77;;;19.70;96.80;;;;;;4069228;29;20056;-54
2023/08/08 07:52:16;;;;;;;5.53;1.80;;;19.90;96.50;;;;;;4068389;29;20050;-53
2023/08/08 07:54:18;;;;;;;7.05;1.75;;;20.10;96.10;;;;;;4069233;29;20111;-53
2023/08/08 07:56:20;;;;;;;5.80;2.28;;;20.20;95.20;;;;;;4069179;29;20054;-52
2023/08/08 07:58:25;;;;;;;5.03;1.80;;;20.20;95.00;;;;;;4068915;29;20141;-51
2023/08/08 08:00:28;;;;;;;6.40;1.60;;;20.20;94.80;;;;;;4069105;29;20044;-54
2023/08/08 08:02:30;;;;;;;5.60;1.75;;;20.30;95.10;;;;;;4068220;29;20051;-54
2023/08/08 08:04:32;;;;;;;6.13;1.83;;;20.40;95.20;;;;;;4068818;29;20115;-54
2023/08/08 08:06:34;;;;;;;7.97;1.92;;;20.50;95.00;;;;;;4068955;29;20052;-55
2023/08/08 08:08:36;;;;;;;6.88;2.25;;;20.70;95.00;;;;;;4068823;29;20416;-54
2023/08/08 08:10:38;;;;;;;5.78;1.58;;;20.80;94.40;;;;;;4068704;29;20052;-55
2023/08/08 08:12:41;;;;;;;4.00;1.50;;;20.70;93.60;;;;;;4068116;29;20052;-53
2023/08/08 08:14:45;;;;;;;7.13;1.67;;;20.50;93.70;;;;;;4068644;29;20044;-54
2023/08/08 08:16:47;;;;;;;7.32;2.15;;;20.30;93.90;;;;;;4067296;29;20126;-53
2023/08/08 08:18:49;;;;;;;6.20;1.70;;;20.40;94.10;;;;;;4068977;29;20056;-52
2023/08/08 08:20:51;;;;;;;8.85;1.95;;;20.40;94.10;;;;;;4069057;29;20417;-53
2023/08/08 08:22:53;;;;;;;4.57;1.40;;;20.50;94.50;;;;;;4068706;29;20327;-53
2023/08/08 08:24:55;;;;;;;5.45;1.60;;;20.40;93.80;;;;;;4069144;29;20127;-54
2023/08/08 08:26:57;;;;;;;9.20;2.05;;;20.40;93.60;;;;;;4069461;29;20048;-55
2023/08/08 08:28:59;;;;;;;6.50;2.22;;;20.50;94.00;;;;;;4069117;29;20052;-54
2023/08/08 08:31:05;;;;;;;6.00;2.03;;;20.60;94.00;;;;;;4068695;29;20044;-52
2023/08/08 08:33:08;;;;;;;8.70;2.67;;;20.70;94.10;;;;;;4068680;29;20064;-52
2023/08/08 08:35:12;;;;;;;5.25;1.55;;;20.80;93.80;;;;;;4068781;29;20055;-54
2023/08/08 08:37:14;;;;;;;6.43;1.75;;;20.80;93.20;;;;;;4069059;29;20052;-53
2023/08/08 08:39:16;;;;;;;5.60;1.55;;;20.80;93.60;;;;;;4068650;29;20126;-53
2023/08/08 08:41:23;;;;;;;5.25;1.90;;;20.90;93.30;;;;;;4067861;29;20102;-53
2023/08/08 08:43:26;;;;;;;6.25;2.40;;;20.90;93.20;;;;;;4068479;29;20055;-55
2023/08/08 08:45:29;;;;;;;8.95;2.30;;;21.10;93.40;;;;;;4068354;29;20438;-54
2023/08/08 08:47:35;;;;;;;12.27;2.15;;;21.20;93.00;;;;;;4068776;29;20059;-54
2023/08/08 08:49:38;;;;;;;5.10;1.50;;;21.30;93.00;;;;;;4068354;29;20490;-54
2023/08/08 08:51:41;;;;;;;4.78;1.90;;;21.20;93.00;;;;;;4068463;29;20079;-54
2023/08/08 08:53:46;;;;;;;4.47;1.67;;;21.20;92.80;;;;;;4068515;29;20056;-55
2023/08/08 08:55:48;;;;;;;5.53;1.70;;;21.20;92.50;;;;;;4068436;29;20048;-54
2023/08/08 08:57:51;;;;;;;6.22;2.10;;;21.40;93.10;;;;;;4068422;29;20131;-53
2023/08/08 08:59:53;;;;;;;3.78;1.63;;;21.50;92.90;;;;;;4067772;29;20064;-54
2023/08/08 09:01:56;;;;;;;3.95;1.40;;;21.50;92.60;;;;;;4067578;29;20054;-53
2023/08/08 09:03:59;;;;;;;9.25;2.10;;;21.40;92.30;;;;;;4067882;29;20052;-54
2023/08/08 09:06:02;;;;;;;7.03;1.52;;;21.50;92.40;;;;;;4068275;29;20048;-51
2023/08/08 09:08:05;;;;;;;6.30;1.77;;;21.50;92.40;;;;;;4068117;29;20410;-52
2023/08/08 09:10:07;;;;;;;8.00;1.60;;;21.60;92.20;;;;;;4068078;29;20414;-52
2023/08/08 09:12:10;;;;;;;6.97;1.50;;;21.50;91.60;;;;;;4067400;29;20122;-52
2023/08/08 09:14:17;;;;;;;4.20;1.73;;;21.60;92.10;;;;;;4067767;29;20043;-52
2023/08/08 09:16:19;;;;;;;4.05;1.30;;;21.50;92.00;;;;;;4068240;29;20054;-52
2023/08/08 09:18:24;;;;;;;7.05;1.92;;;21.50;91.90;;;;;;4068049;29;20055;-52
2023/08/08 09:20:28;;;;;;;4.57;1.40;;;21.40;91.80;;;;;;4067332;29;20055;-52
2023/08/08 09:22:30;;;;;;;4.22;1.40;;;21.40;92.10;;;;;;4067147;29;20052;-53
2023/08/08 09:24:32;;;;;;;4.47;1.30;;;21.50;92.10;;;;;;4068176;29;20066;-52
2023/08/08 09:26:35;;;;;;;6.10;1.52;;;21.70;92.40;;;;;;4068187;29;20079;-55
2023/08/08 09:28:37;;;;;;;10.85;2.00;;;21.90;91.80;;;;;;4067964;29;20048;-54
2023/08/08 09:30:41;;;;;;;5.13;1.30;;;22.00;91.70;;;;;;4067770;29;20055;-54
2023/08/08 09:32:45;;;;;;;5.07;1.60;;;22.10;92.00;;;;;;4067544;29;20056;-53
2023/08/08 09:34:47;;;;;;;2.95;1.20;;;22.10;91.90;;;;;;4068210;29;20506;-55
2023/08/08 09:36:51;;;;;;;5.10;1.55;;;22.10;91.50;;;;;;4069238;29;20048;-55
2023/08/08 09:38:53;;;;;;;5.55;1.75;;;21.90;92.00;;;;;;4068545;29;20143;-55
2023/08/08 09:40:55;;;;;;;5.28;1.73;;;21.90;92.10;;;;;;4068244;29;20052;-53
2023/08/08 09:43:00;;;;;;;3.83;1.60;;;22.00;92.20;;;;;;4067250;29;20054;-55
2023/08/08 09:45:03;;;;;;;5.90;1.67;;;22.00;92.10;;;;;;4067803;29;20056;-54
2023/08/08 09:47:05;;;;;;;5.50;1.75;;;22.10;92.00;;;;;;4067791;29;20494;-55
2023/08/08 09:49:11;;;;;;;5.82;1.60;;;22.00;91.50;;;;;;4067820;29;20092;-53
2023/08/08 09:51:13;;;;;;;4.50;1.75;;;22.00;91.30;;;;;;4067674;29;20084;-55
2023/08/08 09:53:18;;;;;;;5.93;1.67;;;21.80;91.40;;;;;;4067192;29;20521;-54
2023/08/08 09:55:20;;;;;;;3.97;1.10;;;21.80;91.50;;;;;;4068025;29;20533;-54
2023/08/08 09:57:23;;;;;;;7.07;2.15;;;21.80;91.80;;;;;;4067835;29;20052;-53
2023/08/08 09:59:25;;;;;;;12.98;2.42;;;21.90;91.90;;;;;;4067833;29;20055;-53
2023/08/08 10:01:28;;;;;;;2.90;1.35;;;22.00;92.50;;;;;;4068148;29;20079;-53
2023/08/08 10:03:32;;;;;;;6.07;2.08;;;22.10;92.00;;;;;;4068021;29;20055;-53
2023/08/08 10:05:35;;;;;;;8.25;1.70;;;22.10;91.90;;;;;;4068109;29;20048;-52
2023/08/08 10:07:37;;;;;;;8.23;2.03;;;22.10;92.10;;;;;;4067863;29;20045;-54
2023/08/08 10:09:41;;;;;;;3.78;1.42;;;22.20;91.90;;;;;;4067926;29;20053;-52
2023/08/08 10:11:44;;;;;;;3.38;1.38;;;22.30;91.90;;;;;;4067064;29;20056;-52
2023/08/08 10:13:47;;;;;;;7.50;1.63;;;22.10;91.20;;;;;;4067166;29;20055;-54
2023/08/08 10:15:51;;;;;;;5.88;1.67;;;22.10;91.60;;;;;;4067665;29;20052;-52
2023/08/08 10:17:56;;;;;;;5.07;1.40;;;22.10;92.00;;;;;;4067898;29;20058;-52
2023/08/08 10:19:59;;;;;;;4.53;1.88;;;22.10;92.30;;;;;;4068570;29;20099;-53
2023/08/08 10:22:05;;;;;;;6.97;2.03;;;22.20;92.20;;;;;;4067715;29;20107;-54
2023/08/08 10:24:09;;;;;;;7.35;1.85;;;22.30;91.90;;;;;;4068213;29;20040;-53
2023/08/08 10:26:19;;;;;;;4.93;1.70;;;22.40;91.90;;;;;;4069351;29;20052;-52
2023/08/08 10:28:23;;;;;;;3.67;1.45;;;22.50;91.60;;;;;;4068139;29;20123;-53
2023/08/08 10:30:28;;;;;;;6.72;1.48;;;22.60;91.40;;;;;;4067884;29;20489;-51
2023/08/08 10:32:39;;;;;;;3.95;1.50;;;22.70;91.30;;;;;;4069921;29;20087;-51
2023/08/08 10:34:42;;;;;;;3.40;1.40;;;22.70;90.70;;;;;;4070728;29;20052;-53
2023/08/08 10:36:53;;;;;;;6.28;1.80;;;22.60;90.60;;;;;;4070796;29;20549;-53
2023/08/08 10:38:58;;;;;;;6.68;1.48;;;22.60;90.50;;;;;;4071127;29;20123;-52